sensor_id;sensor_type;location;lat;lon;timestamp;P1;durP1;ratioP1;P2;durP2;ratioP2
73296;SDS011;61524;50.938;11.396;2023-08-01T00:01:06;4.93;;;2.10;;
73296;SDS011;61524;50.938;11.396;2023-08-01T00:03:31;5.85;;;2.00;;
73296;SDS011;61524;50.938;11.396;2023-08-01T00:05:57;5.07;;;2.30;;
73296;SDS011;61524;50.938;11.396;2023-08-01T00:08:22;6.60;;;2.70;;
73296;SDS011;61524;50.938;11.396;2023-08-01T00:10:48;5.10;;;1.93;;
73296;SDS011;61524;50.938;11.396;2023-08-01T00:13:13;6.70;;;2.63;;
73296;SDS011;61524;50.938;11.396;2023-08-01T00:15:38;4.53;;;2.53;;
73296;SDS011;61524;50.938;11.396;2023-08-01T00:18:03;5.93;;;2.83;;
73296;SDS011;61524;50.938;11.396;2023-08-01T00:20:29;5.03;;;2.77;;
73296;SDS011;61524;50.938;11.396;2023-08-01T00:22:54;5.63;;;2.10;;
73296;SDS011;61524;50.938;11.396;2023-08-01T00:25:20;5.43;;;2.20;;
73296;SDS011;61524;50.938;11.396;2023-08-01T00:27:45;4.88;;;2.20;;
73296;SDS011;61524;50.938;11.396;2023-08-01T00:30:10;5.55;;;2.42;;
73296;SDS011;61524;50.938;11.396;2023-08-01T00:32:36;5.82;;;2.42;;
73296;SDS011;61524;50.938;11.396;2023-08-01T00:35:01;4.53;;;1.98;;
73296;SDS011;61524;50.938;11.396;2023-08-01T00:37:27;4.20;;;1.80;;
73296;SDS011;61524;50.938;11.396;2023-08-01T00:39:52;5.93;;;2.20;;
73296;SDS011;61524;50.938;11.396;2023-08-01T00:42:17;6.27;;;2.00;;
73296;SDS011;61524;50.938;11.396;2023-08-01T00:44:43;7.38;;;2.33;;
73296;SDS011;61524;50.938;11.396;2023-08-01T00:47:08;7.17;;;2.73;;
73296;SDS011;61524;50.938;11.396;2023-08-01T00:49:33;4.10;;;1.67;;
73296;SDS011;61524;50.938;11.396;2023-08-01T00:51:59;4.20;;;1.83;;
73296;SDS011;61524;50.938;11.396;2023-08-01T00:54:24;3.70;;;1.50;;
73296;SDS011;61524;50.938;11.396;2023-08-01T00:56:50;5.72;;;1.90;;
73296;SDS011;61524;50.938;11.396;2023-08-01T00:59:15;4.03;;;1.70;;
73296;SDS011;61524;50.938;11.396;2023-08-01T01:01:41;3.60;;;1.77;;
73296;SDS011;61524;50.938;11.396;2023-08-01T01:04:06;4.10;;;1.50;;
73296;SDS011;61524;50.938;11.396;2023-08-01T01:06:40;5.22;;;1.88;;
73296;SDS011;61524;50.938;11.396;2023-08-01T01:09:15;5.38;;;1.50;;
73296;SDS011;61524;50.938;11.396;2023-08-01T01:11:41;4.30;;;1.40;;
73296;SDS011;61524;50.938;11.396;2023-08-01T01:14:06;3.65;;;1.30;;
73296;SDS011;61524;50.938;11.396;2023-08-01T01:16:32;3.73;;;1.50;;
73296;SDS011;61524;50.938;11.396;2023-08-01T01:18:57;3.20;;;1.60;;
73296;SDS011;61524;50.938;11.396;2023-08-01T01:21:22;3.73;;;1.70;;
73296;SDS011;61524;50.938;11.396;2023-08-01T01:23:47;3.00;;;1.33;;
73296;SDS011;61524;50.938;11.396;2023-08-01T01:26:14;5.15;;;1.63;;
73296;SDS011;61524;50.938;11.396;2023-08-01T01:28:41;3.78;;;1.50;;
73296;SDS011;61524;50.938;11.396;2023-08-01T01:31:07;3.58;;;1.40;;
73296;SDS011;61524;50.938;11.396;2023-08-01T01:33:32;3.35;;;1.30;;
73296;SDS011;61524;50.938;11.396;2023-08-01T01:35:59;4.13;;;1.58;;
73296;SDS011;61524;50.938;11.396;2023-08-01T01:38:25;3.88;;;1.60;;
73296;SDS011;61524;50.938;11.396;2023-08-01T01:40:50;5.27;;;1.73;;
73296;SDS011;61524;50.938;11.396;2023-08-01T01:43:15;3.63;;;1.50;;
73296;SDS011;61524;50.938;11.396;2023-08-01T01:45:40;3.60;;;1.60;;
73296;SDS011;61524;50.938;11.396;2023-08-01T01:48:06;3.10;;;1.30;;
73296;SDS011;61524;50.938;11.396;2023-08-01T01:50:31;3.50;;;2.00;;
73296;SDS011;61524;50.938;11.396;2023-08-01T01:52:56;5.05;;;2.13;;
73296;SDS011;61524;50.938;11.396;2023-08-01T01:55:22;3.83;;;1.23;;
73296;SDS011;61524;50.938;11.396;2023-08-01T01:57:47;3.53;;;1.37;;
73296;SDS011;61524;50.938;11.396;2023-08-01T02:00:12;4.40;;;1.40;;
73296;SDS011;61524;50.938;11.396;2023-08-01T02:02:37;4.22;;;1.50;;
73296;SDS011;61524;50.938;11.396;2023-08-01T02:05:03;4.55;;;1.70;;
73296;SDS011;61524;50.938;11.396;2023-08-01T02:07:31;3.60;;;1.60;;
73296;SDS011;61524;50.938;11.396;2023-08-01T02:09:56;8.73;;;2.03;;
73296;SDS011;61524;50.938;11.396;2023-08-01T02:12:22;3.47;;;1.53;;
73296;SDS011;61524;50.938;11.396;2023-08-01T02:14:47;3.53;;;1.60;;
73296;SDS011;61524;50.938;11.396;2023-08-01T02:17:12;3.17;;;1.30;;
73296;SDS011;61524;50.938;11.396;2023-08-01T02:19:37;5.00;;;2.40;;
73296;SDS011;61524;50.938;11.396;2023-08-01T02:22:03;4.93;;;1.40;;
73296;SDS011;61524;50.938;11.396;2023-08-01T02:24:28;4.20;;;1.73;;
73296;SDS011;61524;50.938;11.396;2023-08-01T02:26:53;3.90;;;1.50;;
73296;SDS011;61524;50.938;11.396;2023-08-01T02:29:19;3.20;;;1.30;;
73296;SDS011;61524;50.938;11.396;2023-08-01T02:31:44;3.97;;;1.57;;
73296;SDS011;61524;50.938;11.396;2023-08-01T02:34:09;4.20;;;1.60;;
73296;SDS011;61524;50.938;11.396;2023-08-01T02:36:34;5.23;;;1.30;;
73296;SDS011;61524;50.938;11.396;2023-08-01T02:39:00;3.33;;;1.17;;
73296;SDS011;61524;50.938;11.396;2023-08-01T02:41:25;3.92;;;1.10;;
73296;SDS011;61524;50.938;11.396;2023-08-01T02:43:50;2.55;;;0.90;;
73296;SDS011;61524;50.938;11.396;2023-08-01T02:46:16;2.13;;;0.80;;
73296;SDS011;61524;50.938;11.396;2023-08-01T02:48:41;4.35;;;1.27;;
73296;SDS011;61524;50.938;11.396;2023-08-01T02:51:06;2.67;;;0.90;;
73296;SDS011;61524;50.938;11.396;2023-08-01T02:53:34;2.67;;;0.90;;
73296;SDS011;61524;50.938;11.396;2023-08-01T02:55:59;2.40;;;0.98;;
73296;SDS011;61524;50.938;11.396;2023-08-01T02:58:25;3.10;;;1.00;;
73296;SDS011;61524;50.938;11.396;2023-08-01T03:00:50;1.93;;;0.80;;
73296;SDS011;61524;50.938;11.396;2023-08-01T03:03:15;2.80;;;0.80;;
73296;SDS011;61524;50.938;11.396;2023-08-01T03:05:40;2.60;;;0.90;;
73296;SDS011;61524;50.938;11.396;2023-08-01T03:08:06;2.60;;;1.00;;
73296;SDS011;61524;50.938;11.396;2023-08-01T03:10:31;2.60;;;0.80;;
73296;SDS011;61524;50.938;11.396;2023-08-01T03:12:56;1.60;;;0.80;;
73296;SDS011;61524;50.938;11.396;2023-08-01T03:15:21;0.97;;;0.50;;
73296;SDS011;61524;50.938;11.396;2023-08-01T03:17:47;3.10;;;0.80;;
73296;SDS011;61524;50.938;11.396;2023-08-01T03:20:12;2.50;;;1.13;;
73296;SDS011;61524;50.938;11.396;2023-08-01T03:22:38;2.83;;;0.80;;
73296;SDS011;61524;50.938;11.396;2023-08-01T03:25:04;1.88;;;0.65;;
73296;SDS011;61524;50.938;11.396;2023-08-01T03:27:32;1.88;;;0.50;;
73296;SDS011;61524;50.938;11.396;2023-08-01T03:29:58;1.65;;;0.65;;
73296;SDS011;61524;50.938;11.396;2023-08-01T03:32:23;0.97;;;0.40;;
73296;SDS011;61524;50.938;11.396;2023-08-01T03:34:48;2.63;;;0.83;;
73296;SDS011;61524;50.938;11.396;2023-08-01T03:37:14;2.83;;;0.70;;
73296;SDS011;61524;50.938;11.396;2023-08-01T03:39:39;1.73;;;0.70;;
73296;SDS011;61524;50.938;11.396;2023-08-01T03:42:04;2.35;;;0.73;;
73296;SDS011;61524;50.938;11.396;2023-08-01T03:44:30;1.83;;;0.60;;
73296;SDS011;61524;50.938;11.396;2023-08-01T03:46:56;1.85;;;0.40;;
73296;SDS011;61524;50.938;11.396;2023-08-01T03:49:21;1.70;;;0.53;;
73296;SDS011;61524;50.938;11.396;2023-08-01T03:51:47;2.58;;;0.57;;
73296;SDS011;61524;50.938;11.396;2023-08-01T03:54:12;0.67;;;0.47;;
73296;SDS011;61524;50.938;11.396;2023-08-01T03:56:37;1.60;;;0.70;;
73296;SDS011;61524;50.938;11.396;2023-08-01T03:59:04;1.02;;;0.43;;
73296;SDS011;61524;50.938;11.396;2023-08-01T04:01:30;1.27;;;0.60;;
73296;SDS011;61524;50.938;11.396;2023-08-01T04:03:55;1.08;;;0.52;;
73296;SDS011;61524;50.938;11.396;2023-08-01T04:06:20;1.93;;;0.70;;
73296;SDS011;61524;50.938;11.396;2023-08-01T04:08:45;1.67;;;0.70;;
73296;SDS011;61524;50.938;11.396;2023-08-01T04:11:11;1.07;;;0.60;;
73296;SDS011;61524;50.938;11.396;2023-08-01T04:13:36;1.47;;;0.60;;
73296;SDS011;61524;50.938;11.396;2023-08-01T04:16:01;2.38;;;0.80;;
73296;SDS011;61524;50.938;11.396;2023-08-01T04:18:27;2.47;;;0.70;;
73296;SDS011;61524;50.938;11.396;2023-08-01T04:20:52;3.20;;;0.73;;
73296;SDS011;61524;50.938;11.396;2023-08-01T04:23:17;2.13;;;0.80;;
73296;SDS011;61524;50.938;11.396;2023-08-01T04:25:43;3.55;;;0.70;;
73296;SDS011;61524;50.938;11.396;2023-08-01T04:28:08;3.80;;;0.80;;
73296;SDS011;61524;50.938;11.396;2023-08-01T04:30:33;1.40;;;0.53;;
73296;SDS011;61524;50.938;11.396;2023-08-01T04:32:58;2.47;;;0.80;;
73296;SDS011;61524;50.938;11.396;2023-08-01T04:35:24;2.03;;;0.65;;
73296;SDS011;61524;50.938;11.396;2023-08-01T04:37:49;1.93;;;0.80;;
73296;SDS011;61524;50.938;11.396;2023-08-01T04:40:14;3.50;;;1.10;;
73296;SDS011;61524;50.938;11.396;2023-08-01T04:42:40;2.95;;;0.95;;
73296;SDS011;61524;50.938;11.396;2023-08-01T04:45:05;4.35;;;1.00;;
73296;SDS011;61524;50.938;11.396;2023-08-01T04:49:57;3.67;;;0.77;;
73296;SDS011;61524;50.938;11.396;2023-08-01T04:52:22;1.80;;;0.70;;
73296;SDS011;61524;50.938;11.396;2023-08-01T04:54:47;2.50;;;0.70;;
73296;SDS011;61524;50.938;11.396;2023-08-01T04:57:13;3.07;;;0.87;;
73296;SDS011;61524;50.938;11.396;2023-08-01T04:59:38;4.83;;;0.70;;
73296;SDS011;61524;50.938;11.396;2023-08-01T05:02:03;4.57;;;1.13;;
73296;SDS011;61524;50.938;11.396;2023-08-01T05:04:29;3.03;;;0.80;;
73296;SDS011;61524;50.938;11.396;2023-08-01T05:06:54;3.43;;;0.70;;
73296;SDS011;61524;50.938;11.396;2023-08-01T05:09:19;1.53;;;0.60;;
73296;SDS011;61524;50.938;11.396;2023-08-01T05:11:44;2.28;;;0.80;;
73296;SDS011;61524;50.938;11.396;2023-08-01T05:14:10;3.13;;;1.13;;
73296;SDS011;61524;50.938;11.396;2023-08-01T05:16:35;1.38;;;0.60;;
73296;SDS011;61524;50.938;11.396;2023-08-01T05:19:00;2.87;;;0.67;;
73296;SDS011;61524;50.938;11.396;2023-08-01T05:21:25;4.33;;;0.70;;
73296;SDS011;61524;50.938;11.396;2023-08-01T05:23:51;0.95;;;0.50;;
73296;SDS011;61524;50.938;11.396;2023-08-01T05:26:16;7.67;;;0.80;;
73296;SDS011;61524;50.938;11.396;2023-08-01T05:28:41;1.83;;;0.55;;
73296;SDS011;61524;50.938;11.396;2023-08-01T05:31:07;1.30;;;0.50;;
73296;SDS011;61524;50.938;11.396;2023-08-01T05:33:32;0.80;;;0.40;;
73296;SDS011;61524;50.938;11.396;2023-08-01T05:35:57;1.33;;;0.40;;
73296;SDS011;61524;50.938;11.396;2023-08-01T05:38:22;3.13;;;0.60;;
73296;SDS011;61524;50.938;11.396;2023-08-01T05:40:48;1.92;;;0.70;;
73296;SDS011;61524;50.938;11.396;2023-08-01T05:43:13;2.38;;;0.60;;
73296;SDS011;61524;50.938;11.396;2023-08-01T05:45:38;2.78;;;0.77;;
73296;SDS011;61524;50.938;11.396;2023-08-01T05:48:04;3.70;;;0.70;;
73296;SDS011;61524;50.938;11.396;2023-08-01T05:50:29;3.15;;;0.82;;
73296;SDS011;61524;50.938;11.396;2023-08-01T05:52:54;2.03;;;0.65;;
73296;SDS011;61524;50.938;11.396;2023-08-01T05:55:20;1.80;;;0.65;;
73296;SDS011;61524;50.938;11.396;2023-08-01T05:57:46;0.93;;;0.50;;
73296;SDS011;61524;50.938;11.396;2023-08-01T06:00:11;2.95;;;0.93;;
73296;SDS011;61524;50.938;11.396;2023-08-01T06:02:37;1.45;;;0.50;;
73296;SDS011;61524;50.938;11.396;2023-08-01T06:05:02;0.93;;;0.40;;
73296;SDS011;61524;50.938;11.396;2023-08-01T06:07:28;4.70;;;0.70;;
73296;SDS011;61524;50.938;11.396;2023-08-01T06:09:54;1.13;;;0.47;;
73296;SDS011;61524;50.938;11.396;2023-08-01T06:12:19;0.95;;;0.45;;
73296;SDS011;61524;50.938;11.396;2023-08-01T06:14:44;2.75;;;0.60;;
73296;SDS011;61524;50.938;11.396;2023-08-01T06:17:10;1.83;;;0.63;;
73296;SDS011;61524;50.938;11.396;2023-08-01T06:19:35;3.63;;;0.90;;
73296;SDS011;61524;50.938;11.396;2023-08-01T06:22:00;1.13;;;0.35;;
73296;SDS011;61524;50.938;11.396;2023-08-01T06:24:26;1.60;;;0.70;;
73296;SDS011;61524;50.938;11.396;2023-08-01T06:26:51;2.80;;;1.00;;
73296;SDS011;61524;50.938;11.396;2023-08-01T06:29:16;1.53;;;0.50;;
73296;SDS011;61524;50.938;11.396;2023-08-01T06:31:42;2.80;;;0.60;;
73296;SDS011;61524;50.938;11.396;2023-08-01T06:34:07;1.77;;;0.60;;
73296;SDS011;61524;50.938;11.396;2023-08-01T06:36:32;0.97;;;0.57;;
73296;SDS011;61524;50.938;11.396;2023-08-01T06:38:58;0.97;;;0.47;;
73296;SDS011;61524;50.938;11.396;2023-08-01T06:41:23;1.43;;;0.70;;
73296;SDS011;61524;50.938;11.396;2023-08-01T06:43:48;2.70;;;0.65;;
73296;SDS011;61524;50.938;11.396;2023-08-01T06:46:13;2.13;;;0.70;;
73296;SDS011;61524;50.938;11.396;2023-08-01T06:48:39;1.43;;;0.53;;
73296;SDS011;61524;50.938;11.396;2023-08-01T06:51:04;2.40;;;0.73;;
73296;SDS011;61524;50.938;11.396;2023-08-01T06:53:29;4.97;;;0.93;;
73296;SDS011;61524;50.938;11.396;2023-08-01T06:55:55;3.13;;;1.00;;
73296;SDS011;61524;50.938;11.396;2023-08-01T06:58:20;6.17;;;1.30;;
73296;SDS011;61524;50.938;11.396;2023-08-01T07:00:45;2.57;;;0.73;;
73296;SDS011;61524;50.938;11.396;2023-08-01T07:03:10;5.03;;;0.60;;
73296;SDS011;61524;50.938;11.396;2023-08-01T07:05:36;2.20;;;0.43;;
73296;SDS011;61524;50.938;11.396;2023-08-01T07:08:02;1.08;;;0.45;;
73296;SDS011;61524;50.938;11.396;2023-08-01T07:10:27;2.08;;;0.50;;
73296;SDS011;61524;50.938;11.396;2023-08-01T07:12:52;2.05;;;0.50;;
73296;SDS011;61524;50.938;11.396;2023-08-01T07:15:18;2.57;;;1.27;;
73296;SDS011;61524;50.938;11.396;2023-08-01T07:17:43;1.37;;;0.60;;
73296;SDS011;61524;50.938;11.396;2023-08-01T07:20:08;2.57;;;0.60;;
73296;SDS011;61524;50.938;11.396;2023-08-01T07:22:33;2.33;;;0.50;;
73296;SDS011;61524;50.938;11.396;2023-08-01T07:24:59;0.87;;;0.40;;
73296;SDS011;61524;50.938;11.396;2023-08-01T07:27:24;1.60;;;0.60;;
73296;SDS011;61524;50.938;11.396;2023-08-01T07:29:49;1.30;;;0.47;;
73296;SDS011;61524;50.938;11.396;2023-08-01T07:32:15;1.40;;;0.57;;
73296;SDS011;61524;50.938;11.396;2023-08-01T07:34:40;3.10;;;0.90;;
73296;SDS011;61524;50.938;11.396;2023-08-01T07:37:05;1.83;;;0.50;;
73296;SDS011;61524;50.938;11.396;2023-08-01T07:39:30;2.03;;;0.80;;
73296;SDS011;61524;50.938;11.396;2023-08-01T07:41:56;2.30;;;0.80;;
73296;SDS011;61524;50.938;11.396;2023-08-01T07:44:21;2.22;;;0.68;;
73296;SDS011;61524;50.938;11.396;2023-08-01T07:46:47;2.15;;;0.90;;
73296;SDS011;61524;50.938;11.396;2023-08-01T07:49:12;2.13;;;0.70;;
73296;SDS011;61524;50.938;11.396;2023-08-01T07:51:37;1.93;;;0.67;;
73296;SDS011;61524;50.938;11.396;2023-08-01T07:54:02;3.00;;;0.90;;
73296;SDS011;61524;50.938;11.396;2023-08-01T07:56:28;2.38;;;0.82;;
73296;SDS011;61524;50.938;11.396;2023-08-01T07:58:53;3.60;;;0.80;;
73296;SDS011;61524;50.938;11.396;2023-08-01T08:01:18;2.70;;;0.80;;
73296;SDS011;61524;50.938;11.396;2023-08-01T08:03:44;1.75;;;0.65;;
73296;SDS011;61524;50.938;11.396;2023-08-01T08:06:09;1.15;;;0.40;;
73296;SDS011;61524;50.938;11.396;2023-08-01T08:08:34;2.80;;;0.70;;
73296;SDS011;61524;50.938;11.396;2023-08-01T08:11:01;1.95;;;0.52;;
73296;SDS011;61524;50.938;11.396;2023-08-01T08:13:27;2.63;;;0.50;;
73296;SDS011;61524;50.938;11.396;2023-08-01T08:15:52;2.63;;;0.60;;
73296;SDS011;61524;50.938;11.396;2023-08-01T08:18:17;3.50;;;1.10;;
73296;SDS011;61524;50.938;11.396;2023-08-01T08:20:44;2.22;;;1.13;;
73296;SDS011;61524;50.938;11.396;2023-08-01T08:23:10;1.85;;;0.75;;
73296;SDS011;61524;50.938;11.396;2023-08-01T08:25:35;2.97;;;0.80;;
73296;SDS011;61524;50.938;11.396;2023-08-01T08:28:01;1.60;;;0.70;;
73296;SDS011;61524;50.938;11.396;2023-08-01T08:30:26;2.10;;;0.77;;
73296;SDS011;61524;50.938;11.396;2023-08-01T08:32:51;1.40;;;0.68;;
73296;SDS011;61524;50.938;11.396;2023-08-01T08:35:17;2.83;;;0.70;;
73296;SDS011;61524;50.938;11.396;2023-08-01T08:37:42;1.63;;;0.63;;
73296;SDS011;61524;50.938;11.396;2023-08-01T08:40:07;3.83;;;0.90;;
73296;SDS011;61524;50.938;11.396;2023-08-01T08:42:33;1.67;;;0.70;;
73296;SDS011;61524;50.938;11.396;2023-08-01T08:44:59;1.98;;;0.70;;
73296;SDS011;61524;50.938;11.396;2023-08-01T08:49:51;4.20;;;1.03;;
73296;SDS011;61524;50.938;11.396;2023-08-01T08:52:16;3.22;;;0.90;;
73296;SDS011;61524;50.938;11.396;2023-08-01T08:57:08;1.98;;;0.60;;
73296;SDS011;61524;50.938;11.396;2023-08-01T08:59:33;3.35;;;1.17;;
73296;SDS011;61524;50.938;11.396;2023-08-01T09:02:00;2.70;;;0.73;;
73296;SDS011;61524;50.938;11.396;2023-08-01T09:06:51;1.30;;;0.50;;
73296;SDS011;61524;50.938;11.396;2023-08-01T09:09:20;2.67;;;0.60;;
73296;SDS011;61524;50.938;11.396;2023-08-01T09:11:51;3.28;;;1.00;;
73296;SDS011;61524;50.938;11.396;2023-08-01T09:14:16;1.73;;;0.60;;
73296;SDS011;61524;50.938;11.396;2023-08-01T09:16:42;1.95;;;0.50;;
73296;SDS011;61524;50.938;11.396;2023-08-01T09:19:08;1.67;;;0.47;;
73296;SDS011;61524;50.938;11.396;2023-08-01T09:21:35;10.30;;;1.27;;
73296;SDS011;61524;50.938;11.396;2023-08-01T09:26:38;3.67;;;1.10;;
73296;SDS011;61524;50.938;11.396;2023-08-01T09:29:03;3.47;;;1.30;;
73296;SDS011;61524;50.938;11.396;2023-08-01T09:31:33;3.67;;;1.10;;
73296;SDS011;61524;50.938;11.396;2023-08-01T09:33:59;2.60;;;0.95;;
73296;SDS011;61524;50.938;11.396;2023-08-01T09:36:24;3.45;;;1.50;;
73296;SDS011;61524;50.938;11.396;2023-08-01T09:38:50;2.67;;;1.20;;
73296;SDS011;61524;50.938;11.396;2023-08-01T09:41:19;3.63;;;1.30;;
73296;SDS011;61524;50.938;11.396;2023-08-01T09:43:45;3.00;;;1.13;;
73296;SDS011;61524;50.938;11.396;2023-08-01T09:46:11;5.35;;;2.50;;
73296;SDS011;61524;50.938;11.396;2023-08-01T09:48:36;4.35;;;2.17;;
73296;SDS011;61524;50.938;11.396;2023-08-01T09:53:31;5.45;;;3.00;;
73296;SDS011;61524;50.938;11.396;2023-08-01T09:55:56;7.22;;;4.05;;
73296;SDS011;61524;50.938;11.396;2023-08-01T09:58:22;6.53;;;3.97;;
73296;SDS011;61524;50.938;11.396;2023-08-01T10:00:49;5.80;;;3.22;;
73296;SDS011;61524;50.938;11.396;2023-08-01T10:03:16;6.32;;;3.80;;
73296;SDS011;61524;50.938;11.396;2023-08-01T10:05:41;6.25;;;2.97;;
73296;SDS011;61524;50.938;11.396;2023-08-01T10:08:07;6.80;;;3.45;;
73296;SDS011;61524;50.938;11.396;2023-08-01T10:10:33;6.05;;;3.22;;
73296;SDS011;61524;50.938;11.396;2023-08-01T10:12:58;5.45;;;3.45;;
73296;SDS011;61524;50.938;11.396;2023-08-01T10:15:25;7.03;;;3.45;;
73296;SDS011;61524;50.938;11.396;2023-08-01T10:17:51;5.82;;;3.40;;
73296;SDS011;61524;50.938;11.396;2023-08-01T10:20:17;6.40;;;3.15;;
73296;SDS011;61524;50.938;11.396;2023-08-01T10:22:43;7.45;;;3.83;;
73296;SDS011;61524;50.938;11.396;2023-08-01T10:25:09;6.32;;;3.83;;
73296;SDS011;61524;50.938;11.396;2023-08-01T10:27:35;5.85;;;3.22;;
73296;SDS011;61524;50.938;11.396;2023-08-01T10:30:02;4.85;;;2.50;;
73296;SDS011;61524;50.938;11.396;2023-08-01T10:34:53;4.30;;;2.33;;
73296;SDS011;61524;50.938;11.396;2023-08-01T10:37:18;4.75;;;2.50;;
73296;SDS011;61524;50.938;11.396;2023-08-01T10:39:43;6.60;;;2.80;;
73296;SDS011;61524;50.938;11.396;2023-08-01T10:42:09;4.87;;;2.30;;
73296;SDS011;61524;50.938;11.396;2023-08-01T10:44:44;4.78;;;2.25;;
73296;SDS011;61524;50.938;11.396;2023-08-01T10:47:09;4.10;;;2.10;;
73296;SDS011;61524;50.938;11.396;2023-08-01T10:49:39;5.25;;;2.55;;
73296;SDS011;61524;50.938;11.396;2023-08-01T10:54:42;4.00;;;2.25;;
73296;SDS011;61524;50.938;11.396;2023-08-01T10:57:08;4.70;;;2.05;;
73296;SDS011;61524;50.938;11.396;2023-08-01T10:59:34;4.40;;;2.13;;
73296;SDS011;61524;50.938;11.396;2023-08-01T11:01:59;5.60;;;2.60;;
73296;SDS011;61524;50.938;11.396;2023-08-01T11:04:26;4.75;;;2.00;;
73296;SDS011;61524;50.938;11.396;2023-08-01T11:06:52;3.73;;;2.20;;
73296;SDS011;61524;50.938;11.396;2023-08-01T11:09:19;3.92;;;1.92;;
73296;SDS011;61524;50.938;11.396;2023-08-01T11:14:11;3.45;;;1.80;;
73296;SDS011;61524;50.938;11.396;2023-08-01T11:16:37;4.38;;;1.70;;
73296;SDS011;61524;50.938;11.396;2023-08-01T11:19:02;3.28;;;1.77;;
73296;SDS011;61524;50.938;11.396;2023-08-01T11:21:28;4.38;;;1.50;;
73296;SDS011;61524;50.938;11.396;2023-08-01T11:23:53;3.45;;;1.90;;
73296;SDS011;61524;50.938;11.396;2023-08-01T11:26:18;3.10;;;1.50;;
73296;SDS011;61524;50.938;11.396;2023-08-01T11:28:44;5.37;;;1.83;;
73296;SDS011;61524;50.938;11.396;2023-08-01T11:31:12;3.22;;;1.52;;
73296;SDS011;61524;50.938;11.396;2023-08-01T11:33:38;4.47;;;1.83;;
73296;SDS011;61524;50.938;11.396;2023-08-01T11:36:03;3.65;;;1.50;;
73296;SDS011;61524;50.938;11.396;2023-08-01T11:38:29;3.97;;;1.30;;
73296;SDS011;61524;50.938;11.396;2023-08-01T11:40:56;5.47;;;1.33;;
73296;SDS011;61524;50.938;11.396;2023-08-01T11:43:21;3.30;;;1.40;;
73296;SDS011;61524;50.938;11.396;2023-08-01T11:48:15;3.67;;;1.42;;
73296;SDS011;61524;50.938;11.396;2023-08-01T11:50:41;4.40;;;2.10;;
73296;SDS011;61524;50.938;11.396;2023-08-01T11:53:06;3.85;;;1.55;;
73296;SDS011;61524;50.938;11.396;2023-08-01T11:55:42;3.22;;;1.58;;
73296;SDS011;61524;50.938;11.396;2023-08-01T11:58:07;4.57;;;1.67;;
73296;SDS011;61524;50.938;11.396;2023-08-01T12:00:32;5.37;;;1.63;;
73296;SDS011;61524;50.938;11.396;2023-08-01T12:03:04;3.30;;;1.40;;
73296;SDS011;61524;50.938;11.396;2023-08-01T12:05:30;2.63;;;1.40;;
73296;SDS011;61524;50.938;11.396;2023-08-01T12:07:55;3.83;;;1.60;;
73296;SDS011;61524;50.938;11.396;2023-08-01T12:10:20;2.40;;;1.20;;
73296;SDS011;61524;50.938;11.396;2023-08-01T12:12:46;3.80;;;1.40;;
73296;SDS011;61524;50.938;11.396;2023-08-01T12:15:12;2.80;;;1.40;;
73296;SDS011;61524;50.938;11.396;2023-08-01T12:17:38;3.17;;;1.17;;
73296;SDS011;61524;50.938;11.396;2023-08-01T12:20:03;2.97;;;1.27;;
73296;SDS011;61524;50.938;11.396;2023-08-01T12:22:29;3.13;;;1.30;;
73296;SDS011;61524;50.938;11.396;2023-08-01T12:24:54;2.72;;;1.38;;
73296;SDS011;61524;50.938;11.396;2023-08-01T12:27:20;2.38;;;1.13;;
73296;SDS011;61524;50.938;11.396;2023-08-01T12:29:45;2.53;;;1.23;;
73296;SDS011;61524;50.938;11.396;2023-08-01T12:32:11;2.83;;;1.30;;
73296;SDS011;61524;50.938;11.396;2023-08-01T12:34:36;2.80;;;1.20;;
73296;SDS011;61524;50.938;11.396;2023-08-01T12:37:01;3.10;;;1.60;;
73296;SDS011;61524;50.938;11.396;2023-08-01T12:39:26;4.50;;;1.55;;
73296;SDS011;61524;50.938;11.396;2023-08-01T12:41:52;3.38;;;1.38;;
73296;SDS011;61524;50.938;11.396;2023-08-01T12:44:19;4.50;;;1.88;;
73296;SDS011;61524;50.938;11.396;2023-08-01T12:46:44;3.05;;;1.50;;
73296;SDS011;61524;50.938;11.396;2023-08-01T12:49:09;4.05;;;1.30;;
73296;SDS011;61524;50.938;11.396;2023-08-01T12:51:35;2.33;;;1.47;;
73296;SDS011;61524;50.938;11.396;2023-08-01T12:54:00;3.80;;;1.33;;
73296;SDS011;61524;50.938;11.396;2023-08-01T12:56:25;3.00;;;1.45;;
73296;SDS011;61524;50.938;11.396;2023-08-01T12:58:50;3.83;;;1.30;;
73296;SDS011;61524;50.938;11.396;2023-08-01T13:01:16;3.53;;;1.30;;
73296;SDS011;61524;50.938;11.396;2023-08-01T13:03:41;4.32;;;1.60;;
73296;SDS011;61524;50.938;11.396;2023-08-01T13:06:09;4.47;;;1.27;;
73296;SDS011;61524;50.938;11.396;2023-08-01T13:08:35;5.43;;;1.73;;
73296;SDS011;61524;50.938;11.396;2023-08-01T13:11:00;3.53;;;1.97;;
73296;SDS011;61524;50.938;11.396;2023-08-01T13:13:25;3.47;;;1.60;;
73296;SDS011;61524;50.938;11.396;2023-08-01T13:15:50;5.77;;;1.87;;
73296;SDS011;61524;50.938;11.396;2023-08-01T13:18:16;4.22;;;1.80;;
73296;SDS011;61524;50.938;11.396;2023-08-01T13:20:42;3.85;;;1.60;;
73296;SDS011;61524;50.938;11.396;2023-08-01T13:23:08;3.73;;;1.67;;
73296;SDS011;61524;50.938;11.396;2023-08-01T13:25:33;2.72;;;1.35;;
73296;SDS011;61524;50.938;11.396;2023-08-01T13:27:58;4.40;;;2.13;;
73296;SDS011;61524;50.938;11.396;2023-08-01T13:30:24;3.35;;;1.50;;
73296;SDS011;61524;50.938;11.396;2023-08-01T13:32:49;3.17;;;1.42;;
73296;SDS011;61524;50.938;11.396;2023-08-01T13:35:14;4.73;;;1.67;;
73296;SDS011;61524;50.938;11.396;2023-08-01T13:37:40;3.08;;;1.52;;
73296;SDS011;61524;50.938;11.396;2023-08-01T13:40:05;3.65;;;1.63;;
73296;SDS011;61524;50.938;11.396;2023-08-01T13:42:31;2.88;;;1.10;;
73296;SDS011;61524;50.938;11.396;2023-08-01T13:44:56;3.80;;;1.40;;
73296;SDS011;61524;50.938;11.396;2023-08-01T13:47:22;4.35;;;1.38;;
73296;SDS011;61524;50.938;11.396;2023-08-01T13:49:47;3.80;;;1.70;;
73296;SDS011;61524;50.938;11.396;2023-08-01T13:52:12;4.63;;;1.83;;
73296;SDS011;61524;50.938;11.396;2023-08-01T13:54:38;3.45;;;1.48;;
73296;SDS011;61524;50.938;11.396;2023-08-01T13:57:03;8.83;;;1.90;;
73296;SDS011;61524;50.938;11.396;2023-08-01T13:59:29;5.25;;;2.00;;
73296;SDS011;61524;50.938;11.396;2023-08-01T14:01:54;3.77;;;2.10;;
73296;SDS011;61524;50.938;11.396;2023-08-01T14:04:20;4.30;;;1.90;;
73296;SDS011;61524;50.938;11.396;2023-08-01T14:06:45;3.55;;;1.98;;
73296;SDS011;61524;50.938;11.396;2023-08-01T14:09:10;3.70;;;2.13;;
73296;SDS011;61524;50.938;11.396;2023-08-01T14:11:36;4.20;;;1.55;;
73296;SDS011;61524;50.938;11.396;2023-08-01T14:14:01;4.40;;;1.98;;
73296;SDS011;61524;50.938;11.396;2023-08-01T14:16:27;6.80;;;2.17;;
73296;SDS011;61524;50.938;11.396;2023-08-01T14:18:52;4.03;;;2.08;;
73296;SDS011;61524;50.938;11.396;2023-08-01T14:21:18;4.90;;;1.80;;
73296;SDS011;61524;50.938;11.396;2023-08-01T14:23:43;4.70;;;1.80;;
73296;SDS011;61524;50.938;11.396;2023-08-01T14:26:08;3.97;;;1.63;;
73296;SDS011;61524;50.938;11.396;2023-08-01T14:28:34;3.15;;;1.50;;
73296;SDS011;61524;50.938;11.396;2023-08-01T14:31:02;5.13;;;1.87;;
73296;SDS011;61524;50.938;11.396;2023-08-01T14:33:28;4.07;;;1.58;;
73296;SDS011;61524;50.938;11.396;2023-08-01T14:35:53;4.47;;;2.22;;
73296;SDS011;61524;50.938;11.396;2023-08-01T14:38:18;5.20;;;2.08;;
73296;SDS011;61524;50.938;11.396;2023-08-01T14:40:44;4.03;;;1.80;;
73296;SDS011;61524;50.938;11.396;2023-08-01T14:43:09;3.53;;;1.30;;
73296;SDS011;61524;50.938;11.396;2023-08-01T14:45:36;4.43;;;1.70;;
73296;SDS011;61524;50.938;11.396;2023-08-01T14:48:02;5.80;;;1.98;;